createdAt,value
2018-03-08T00:02:17.386Z,8.28
2018-03-08T00:04:45.845Z,8.10
2018-03-08T00:07:14.312Z,8.22
2018-03-08T00:09:42.814Z,8.25
2018-03-08T00:12:11.314Z,8.21
2018-03-08T00:14:39.817Z,8.20
2018-03-08T00:17:08.284Z,8.30
2018-03-08T00:19:36.786Z,8.31
2018-03-08T00:22:05.286Z,8.33
2018-03-08T00:24:33.799Z,8.33
2018-03-08T00:27:02.306Z,8.32
2018-03-08T00:29:30.768Z,8.29
2018-03-08T00:31:59.266Z,8.26
2018-03-08T00:34:27.732Z,8.25
2018-03-08T00:36:56.247Z,8.06
2018-03-08T00:39:24.750Z,8.05
2018-03-08T00:41:53.234Z,8.11
2018-03-08T00:44:21.691Z,8.03
2018-03-08T00:46:50.189Z,7.94
2018-03-08T00:49:18.661Z,7.76
2018-03-08T00:51:47.162Z,7.80
2018-03-08T00:54:15.677Z,7.79
2018-03-08T00:56:44.156Z,7.94
2018-03-08T00:59:12.677Z,8.07
2018-03-08T01:01:41.172Z,8.10
2018-03-08T01:04:09.645Z,8.15
2018-03-08T01:06:38.154Z,8.14
2018-03-08T01:09:06.614Z,8.16
2018-03-08T01:11:35.083Z,8.12
2018-03-08T01:14:03.586Z,8.15
2018-03-08T01:16:32.075Z,8.21
2018-03-08T01:19:00.569Z,8.16
2018-03-08T01:21:29.104Z,8.26
2018-03-08T01:23:57.569Z,8.33
2018-03-08T01:26:26.031Z,8.30
2018-03-08T01:28:54.516Z,8.30
2018-03-08T01:31:22.974Z,8.31
2018-03-08T01:33:51.478Z,8.36
2018-03-08T01:36:27.797Z,8.39
2018-03-08T01:38:56.294Z,8.39
2018-03-08T01:41:24.774Z,8.39
2018-03-08T01:43:53.306Z,8.42
2018-03-08T01:46:21.830Z,8.33
2018-03-08T01:48:50.321Z,8.39
2018-03-08T01:51:18.788Z,8.37
2018-03-08T01:53:47.296Z,8.37
2018-03-08T01:56:15.800Z,8.40
2018-03-08T01:58:44.244Z,8.43
2018-03-08T02:01:12.769Z,8.30
2018-03-08T02:03:41.266Z,8.32
2018-03-08T02:06:09.764Z,8.31
2018-03-08T02:08:38.226Z,8.37
2018-03-08T02:11:06.745Z,8.42
2018-03-08T02:13:35.211Z,8.43
2018-03-08T02:16:03.777Z,8.38
2018-03-08T02:18:32.255Z,8.52
2018-03-08T02:21:00.737Z,8.40
2018-03-08T02:23:29.226Z,8.45
2018-03-08T02:25:57.691Z,8.54
2018-03-08T02:28:26.220Z,8.53
2018-03-08T02:30:54.692Z,8.57
2018-03-08T02:33:23.211Z,8.55
2018-03-08T02:35:51.710Z,8.56
2018-03-08T02:38:20.203Z,8.57
2018-03-08T02:40:48.718Z,8.63
2018-03-08T02:43:17.178Z,8.60
2018-03-08T02:45:45.637Z,8.50
2018-03-08T02:48:14.167Z,8.46
2018-03-08T02:50:42.674Z,8.36
2018-03-08T02:53:11.166Z,8.45
2018-03-08T02:55:39.673Z,8.49
2018-03-08T02:58:08.163Z,8.60
2018-03-08T03:00:36.665Z,8.51
2018-03-08T03:03:05.183Z,8.65
2018-03-08T03:05:33.666Z,8.67
2018-03-08T03:08:02.150Z,8.71
2018-03-08T03:10:30.651Z,8.71
2018-03-08T03:12:59.158Z,8.71
2018-03-08T03:15:27.668Z,8.74
2018-03-08T03:17:56.144Z,8.52
2018-03-08T03:20:24.606Z,8.57
2018-03-08T03:22:53.113Z,8.39
2018-03-08T03:25:21.660Z,8.46
2018-03-08T03:27:50.165Z,8.57
2018-03-08T03:30:18.671Z,8.57
2018-03-08T03:32:47.159Z,8.55
2018-03-08T03:35:15.625Z,8.49
2018-03-08T03:37:44.124Z,8.59
2018-03-08T03:40:12.594Z,8.63
2018-03-08T03:42:41.095Z,8.56
2018-03-08T03:45:09.562Z,8.69
2018-03-08T03:47:38.027Z,8.71
2018-03-08T03:50:06.522Z,8.66
2018-03-08T03:52:34.981Z,8.71
2018-03-08T03:55:03.482Z,8.58
2018-03-08T03:57:32.014Z,8.67
2018-03-08T04:00:00.479Z,8.72
2018-03-08T04:02:28.951Z,8.74
2018-03-08T04:04:57.472Z,8.65
2018-03-08T04:07:25.939Z,8.03
2018-03-08T04:09:54.438Z,8.03
2018-03-08T04:12:22.908Z,8.14
2018-03-08T04:14:51.409Z,8.40
2018-03-08T04:17:19.875Z,8.23
2018-03-08T04:19:48.374Z,8.39
2018-03-08T04:22:16.882Z,8.27
2018-03-08T04:24:45.341Z,8.36
2018-03-08T04:27:13.806Z,8.40
2018-03-08T04:29:42.298Z,8.50
2018-03-08T04:32:10.758Z,8.52
2018-03-08T04:34:39.261Z,8.53
2018-03-08T04:37:07.757Z,8.59
2018-03-08T04:39:36.273Z,8.66
2018-03-08T04:42:04.784Z,8.57
2018-03-08T04:44:33.302Z,8.66
2018-03-08T04:47:01.771Z,8.71
2018-03-08T04:49:30.249Z,8.67
2018-03-08T04:51:58.753Z,8.70
2018-03-08T04:54:27.220Z,8.72
2018-03-08T04:56:55.730Z,8.75
2018-03-08T04:59:24.262Z,8.68
2018-03-08T05:01:52.746Z,8.37
2018-03-08T05:04:21.246Z,8.12
2018-03-08T05:06:49.710Z,8.03
2018-03-08T05:09:18.210Z,8.27
2018-03-08T05:11:46.670Z,8.05
2018-03-08T05:14:15.207Z,8.20
2018-03-08T05:16:43.662Z,8.43
2018-03-08T05:19:12.158Z,8.58
2018-03-08T05:21:40.626Z,8.60
2018-03-08T05:24:09.082Z,8.71
2018-03-08T05:26:37.582Z,8.55
2018-03-08T05:29:06.055Z,8.60
2018-03-08T05:31:34.571Z,8.67
2018-03-08T05:34:03.071Z,8.77
2018-03-08T05:36:31.570Z,8.70
2018-03-08T05:39:00.074Z,8.52
2018-03-08T05:41:28.574Z,8.73
2018-03-08T05:43:57.041Z,8.76
2018-03-08T05:46:25.565Z,8.96
2018-03-08T05:48:54.044Z,9.06
2018-03-08T05:51:22.512Z,8.94
2018-03-08T05:53:51.026Z,9.17
2018-03-08T05:56:19.486Z,8.90
2018-03-08T05:58:48.036Z,9.06
2018-03-08T06:01:21.366Z,9.07
2018-03-08T06:03:49.867Z,9.08
2018-03-08T06:06:18.340Z,9.15
2018-03-08T06:08:46.798Z,9.27
2018-03-08T06:11:15.256Z,9.19
2018-03-08T06:13:43.758Z,9.21
2018-03-08T06:16:12.254Z,9.29
2018-03-08T06:18:40.748Z,9.43
2018-03-08T06:21:09.255Z,9.54
2018-03-08T06:23:37.740Z,9.54
2018-03-08T06:26:06.283Z,9.33
2018-03-08T06:28:34.733Z,9.49
2018-03-08T06:31:03.226Z,9.72
2018-03-08T06:33:31.738Z,9.86
2018-03-08T06:36:00.214Z,10.25
2018-03-08T06:38:28.730Z,10.44
2018-03-08T06:40:57.219Z,10.63
2018-03-08T06:43:25.729Z,10.79
2018-03-08T06:45:54.226Z,10.81
2018-03-08T06:48:22.739Z,10.76
2018-03-08T06:50:51.290Z,10.95
2018-03-08T06:53:19.773Z,11.10
2018-03-08T06:55:48.270Z,11.10
2018-03-08T06:58:16.871Z,11.03
2018-03-08T07:00:45.374Z,10.90
2018-03-08T07:03:13.902Z,11.03
2018-03-08T07:05:42.987Z,11.22
2018-03-08T07:08:11.487Z,11.27
2018-03-08T07:10:40.588Z,11.33
2018-03-08T07:13:09.183Z,11.37
2018-03-08T07:15:37.664Z,11.48
2018-03-08T07:18:06.155Z,11.55
2018-03-08T07:20:34.689Z,11.68
2018-03-08T07:23:03.234Z,11.77
2018-03-08T07:25:31.751Z,11.90
2018-03-08T07:28:00.266Z,12.05
2018-03-08T07:30:28.742Z,12.20
2018-03-08T07:32:57.286Z,12.33
2018-03-08T07:35:25.750Z,12.48
2018-03-08T07:37:54.258Z,12.77
2018-03-08T07:40:22.746Z,12.98
2018-03-08T07:42:51.250Z,13.26
2018-03-08T07:45:19.730Z,13.52
2018-03-08T07:47:48.228Z,13.66
2018-03-08T07:50:16.712Z,13.89
2018-03-08T07:52:45.178Z,14.11
2018-03-08T07:55:13.707Z,14.04
2018-03-08T07:57:42.171Z,14.26
2018-03-08T08:00:10.655Z,14.34
2018-03-08T08:02:39.158Z,14.51
2018-03-08T08:05:19.394Z,14.53
2018-03-08T08:07:59.534Z,14.24
2018-03-08T08:10:28.070Z,14.27
2018-03-08T08:12:56.599Z,14.29
2018-03-08T08:15:25.102Z,14.60
2018-03-08T08:17:53.837Z,14.63
2018-03-08T08:20:22.442Z,14.71
2018-03-08T08:22:50.925Z,15.06
2018-03-08T08:25:19.394Z,14.86
2018-03-08T08:27:47.923Z,14.81
2018-03-08T08:30:16.394Z,14.74
2018-03-08T08:32:44.898Z,14.95
2018-03-08T08:35:13.367Z,14.99
2018-03-08T08:37:41.989Z,14.89
2018-03-08T08:40:10.526Z,14.98
2018-03-08T08:42:39.046Z,15.04
2018-03-08T08:45:07.537Z,15.16
2018-03-08T08:47:36.060Z,15.42
2018-03-08T08:50:04.642Z,15.41
2018-03-08T08:52:33.108Z,15.04
2018-03-08T12:05:29.954Z,16.96
2018-03-08T12:08:04.994Z,17.13
2018-03-08T12:10:33.495Z,17.24
2018-03-08T12:13:02.196Z,17.23
2018-03-08T12:15:30.726Z,17.09
2018-03-08T12:17:59.249Z,16.87
2018-03-08T12:20:27.687Z,16.88
2018-03-08T12:22:56.207Z,16.82
2018-03-08T12:25:24.723Z,16.97
2018-03-08T12:27:53.250Z,16.72
2018-03-08T12:30:21.706Z,16.58
2018-03-08T12:32:50.194Z,16.42
2018-03-08T12:35:18.738Z,16.30
2018-03-08T12:37:47.206Z,16.30
2018-03-08T12:40:15.736Z,15.92
2018-03-08T12:42:44.235Z,15.89
2018-03-08T12:45:12.705Z,15.96
2018-03-08T12:47:41.236Z,15.58
2018-03-08T12:50:09.706Z,15.58
2018-03-08T12:52:38.196Z,15.22
2018-03-08T12:55:06.720Z,15.63
2018-03-08T12:57:35.233Z,15.72
2018-03-08T13:00:03.754Z,15.73
2018-03-08T13:02:32.297Z,15.73
2018-03-08T13:05:00.793Z,15.62
2018-03-08T13:07:29.276Z,15.27
2018-03-08T13:09:57.787Z,15.35
2018-03-08T13:12:26.242Z,15.30
2018-03-08T13:14:54.738Z,15.42
2018-03-08T13:17:23.254Z,15.18
2018-03-08T13:19:51.730Z,15.09
2018-03-08T13:22:20.258Z,15.04
2018-03-08T13:24:48.758Z,15.21
2018-03-08T13:27:17.286Z,15.02
2018-03-08T13:29:45.784Z,14.89
2018-03-08T13:32:14.259Z,14.82
2018-03-08T13:34:42.762Z,14.80
2018-03-08T13:37:11.262Z,14.65
2018-03-08T13:39:39.794Z,14.60
2018-03-08T13:42:08.279Z,14.58
2018-03-08T13:44:36.781Z,14.34
2018-03-08T13:47:05.243Z,14.29
2018-03-08T13:49:36.742Z,13.90
2018-03-08T13:52:05.266Z,14.10
2018-03-08T13:54:33.730Z,14.18
2018-03-08T13:57:02.246Z,13.83
2018-03-08T13:59:30.732Z,14.04
2018-03-08T14:01:59.234Z,13.95
2018-03-08T14:04:27.707Z,13.88
2018-03-08T14:06:56.206Z,13.55
2018-03-08T14:09:24.715Z,13.58
2018-03-08T14:11:53.230Z,13.41
2018-03-08T14:14:21.750Z,13.25
2018-03-08T14:16:50.271Z,13.13
2018-03-08T14:21:49.909Z,13.12
2018-03-08T14:24:18.439Z,13.10
2018-03-08T14:26:46.924Z,13.00
2018-03-08T14:29:15.399Z,12.95
2018-03-08T14:31:44.093Z,12.78
2018-03-08T14:34:12.603Z,12.67
2018-03-08T14:36:41.061Z,12.72
2018-03-08T14:39:09.570Z,12.67
2018-03-08T14:41:38.119Z,12.52
2018-03-08T14:44:06.619Z,12.67
2018-03-08T14:46:35.147Z,12.68
2018-03-08T14:49:03.663Z,12.80
2018-03-08T14:51:32.130Z,12.85
2018-03-08T14:54:00.741Z,12.87
2018-03-08T14:56:29.289Z,12.94
2018-03-08T14:58:57.806Z,12.94
2018-03-08T15:01:26.389Z,12.95
2018-03-08T15:03:55.078Z,12.67
2018-03-08T15:06:23.594Z,12.58
2018-03-08T15:08:52.147Z,12.56
2018-03-08T15:11:20.623Z,12.65
2018-03-08T15:13:49.309Z,12.51
2018-03-08T15:16:17.893Z,12.56
2018-03-08T15:18:46.402Z,12.61
2018-03-08T15:21:14.841Z,12.53
2018-03-08T15:23:43.362Z,12.67
2018-03-08T15:26:11.870Z,12.59
2018-03-08T15:28:40.394Z,12.69
2018-03-08T15:31:08.847Z,12.74
2018-03-08T15:33:37.338Z,12.62
2018-03-08T15:36:05.910Z,12.47
2018-03-08T15:38:34.388Z,12.57
2018-03-08T15:41:02.842Z,12.68
2018-03-08T15:43:31.334Z,12.61
2018-03-08T15:45:59.879Z,12.65
2018-03-08T15:48:28.386Z,12.58
2018-03-08T15:50:56.890Z,12.42
2018-03-08T15:53:25.426Z,12.49
2018-03-08T15:55:53.889Z,12.38
2018-03-08T15:58:22.565Z,12.48
2018-03-08T16:00:51.031Z,12.34
2018-03-08T16:03:19.546Z,12.42
2018-03-08T16:05:48.047Z,12.42
2018-03-08T16:08:22.147Z,12.38
2018-03-08T16:10:50.683Z,12.48
2018-03-08T16:13:19.223Z,12.53
2018-03-08T16:15:47.730Z,12.57
2018-03-08T16:18:16.245Z,12.53
2018-03-08T16:20:44.779Z,12.57
2018-03-08T16:23:13.248Z,12.50
2018-03-08T16:25:41.762Z,12.58
2018-03-08T16:28:10.259Z,12.69
2018-03-08T16:30:39.424Z,12.71
2018-03-08T16:33:07.890Z,12.67
2018-03-08T16:35:36.404Z,12.61
2018-03-08T16:38:04.923Z,12.66
2018-03-08T16:40:33.399Z,12.53
2018-03-08T16:43:02.229Z,12.57
2018-03-08T16:45:30.698Z,12.67
2018-03-08T16:47:59.154Z,12.65
2018-03-08T16:50:27.729Z,12.65
2018-03-08T16:52:56.183Z,12.52
2018-03-08T16:55:24.686Z,12.45
2018-03-08T16:57:53.194Z,12.58
2018-03-08T17:00:21.661Z,12.59
2018-03-08T17:02:50.196Z,12.53
2018-03-08T17:05:18.712Z,12.57
2018-03-08T17:07:47.237Z,12.60
2018-03-08T17:10:15.696Z,12.59
2018-03-08T17:12:44.211Z,12.16
2018-03-08T17:15:12.682Z,12.28
2018-03-08T17:17:41.187Z,12.50
2018-03-08T17:20:09.704Z,12.40
2018-03-08T17:22:38.214Z,12.38
2018-03-08T17:25:06.765Z,12.41
2018-03-08T17:27:35.247Z,12.38
2018-03-08T17:30:03.802Z,12.40
2018-03-08T17:32:32.271Z,12.28
2018-03-08T17:35:00.733Z,12.35
2018-03-08T17:37:29.250Z,12.21
2018-03-08T17:39:57.739Z,12.20
2018-03-08T17:42:26.287Z,12.23
2018-03-08T17:44:54.794Z,12.21
2018-03-08T17:47:23.254Z,12.17
2018-03-08T17:49:51.773Z,12.31
2018-03-08T17:52:20.269Z,12.14
2018-03-08T17:54:48.774Z,12.28
2018-03-08T17:57:17.272Z,12.08
2018-03-08T17:59:45.800Z,12.29
2018-03-08T18:02:14.310Z,12.27
2018-03-08T18:04:42.803Z,12.30
2018-03-08T18:07:11.270Z,12.33
2018-03-08T18:09:39.796Z,12.29
2018-03-08T18:12:08.273Z,12.21
2018-03-08T18:14:36.746Z,12.32
2018-03-08T18:17:05.274Z,12.26
2018-03-08T18:19:33.742Z,12.34
2018-03-08T18:22:02.352Z,12.40
2018-03-08T18:24:30.829Z,12.23
2018-03-08T18:26:59.285Z,12.28
2018-03-08T18:29:27.813Z,12.26
2018-03-08T18:31:56.262Z,12.31
2018-03-08T18:34:24.774Z,12.05
2018-03-08T18:36:53.231Z,12.18
2018-03-08T18:39:21.718Z,12.14
2018-03-08T18:41:50.203Z,12.09
2018-03-08T18:44:18.649Z,12.12
2018-03-08T18:46:47.131Z,12.12
2018-03-08T18:49:15.619Z,12.12
2018-03-08T18:51:44.074Z,12.15
2018-03-08T18:54:12.578Z,12.30
2018-03-08T18:56:41.031Z,12.13
2018-03-08T18:59:09.463Z,12.25
2018-03-08T19:01:37.964Z,12.13
2018-03-08T19:04:06.458Z,12.22
2018-03-08T19:06:34.950Z,12.12
2018-03-08T19:09:03.478Z,12.12
2018-03-08T19:11:31.970Z,12.17
2018-03-08T19:14:00.418Z,12.10
2018-03-08T19:16:28.923Z,12.08
2018-03-08T19:18:57.386Z,11.98
2018-03-08T19:21:25.923Z,12.17
2018-03-08T19:23:54.426Z,12.06
2018-03-08T19:26:22.907Z,11.94
2018-03-08T19:28:51.398Z,11.91
2018-03-08T19:31:19.858Z,12.04
2018-03-08T19:33:48.359Z,12.11
2018-03-08T19:36:16.822Z,12.02
2018-03-08T19:38:45.323Z,11.85
2018-03-08T19:41:13.786Z,11.99
2018-03-08T19:43:42.288Z,11.96
2018-03-08T19:46:10.792Z,11.82
2018-03-08T19:48:39.303Z,11.73
2018-03-08T19:51:07.768Z,11.60
2018-03-08T19:53:36.232Z,11.57
2018-03-08T19:56:04.748Z,11.64
2018-03-08T19:58:33.329Z,11.60
2018-03-08T20:01:01.787Z,11.62
2018-03-08T20:03:30.264Z,11.45
2018-03-08T20:05:58.743Z,11.43
2018-03-08T20:08:27.218Z,11.53
2018-03-08T20:10:55.826Z,11.52
2018-03-08T20:13:24.284Z,11.50
2018-03-08T20:15:52.770Z,11.37
2018-03-08T20:18:21.259Z,11.39
2018-03-08T20:20:49.710Z,11.35
2018-03-08T20:23:18.202Z,11.34
2018-03-08T20:25:46.694Z,11.29
2018-03-08T20:28:15.150Z,11.31
2018-03-08T20:30:43.645Z,11.35
2018-03-08T20:33:12.123Z,11.26
2018-03-08T20:35:40.605Z,11.23
2018-03-08T20:38:09.092Z,11.20
2018-03-08T20:40:37.590Z,11.10
2018-03-08T20:43:06.064Z,11.20
2018-03-08T20:45:34.528Z,11.06
2018-03-08T20:48:03.018Z,11.10
2018-03-08T20:50:31.546Z,11.10
2018-03-08T20:53:00.038Z,11.15
2018-03-08T20:55:28.501Z,11.22
2018-03-08T20:57:56.995Z,11.12
2018-03-08T21:00:25.486Z,11.03
2018-03-08T21:02:53.946Z,11.02
2018-03-08T21:05:22.452Z,11.07
2018-03-08T21:07:50.967Z,10.93
2018-03-08T21:10:19.482Z,11.10
2018-03-08T21:12:47.942Z,11.16
2018-03-08T21:15:16.474Z,11.16
2018-03-08T21:17:44.984Z,11.02
2018-03-08T21:20:13.431Z,11.04
2018-03-08T21:22:41.918Z,10.99
2018-03-08T21:25:10.370Z,10.96
2018-03-08T21:27:38.834Z,10.90
2018-03-08T21:30:07.326Z,10.99
2018-03-08T21:32:35.786Z,10.89
2018-03-08T21:35:04.286Z,10.94
2018-03-08T21:37:32.744Z,10.80
2018-03-08T21:40:01.261Z,10.88
2018-03-08T21:42:29.744Z,10.88
2018-03-08T21:44:58.217Z,10.94
2018-03-08T21:47:26.703Z,11.01
2018-03-08T21:49:55.192Z,10.93
2018-03-08T21:52:23.686Z,10.97
2018-03-08T21:54:52.182Z,11.04
2018-03-08T21:57:20.654Z,10.89
2018-03-08T21:59:49.143Z,10.95
2018-03-08T22:02:17.594Z,11.00
2018-03-08T22:04:46.062Z,10.73
2018-03-08T22:07:14.554Z,10.85
2018-03-08T22:09:43.047Z,10.90
2018-03-08T22:12:11.517Z,10.79
2018-03-08T22:14:39.956Z,10.76
2018-03-08T22:17:08.407Z,10.73
2018-03-08T22:19:36.926Z,10.66
2018-03-08T22:22:05.387Z,10.58
2018-03-08T22:24:33.858Z,10.47
2018-03-08T22:27:02.338Z,10.59
2018-03-08T22:29:30.783Z,10.62
2018-03-08T22:31:59.274Z,10.64
2018-03-08T22:34:27.727Z,10.55
2018-03-08T22:36:56.206Z,10.51
2018-03-08T22:39:24.662Z,10.56
2018-03-08T22:41:53.163Z,10.43
2018-03-08T22:44:21.696Z,10.40
2018-03-08T22:46:50.160Z,10.27
2018-03-08T22:49:18.654Z,10.23
2018-03-08T22:51:47.122Z,10.25
2018-03-08T22:54:15.639Z,10.24
2018-03-08T22:56:44.126Z,10.02
2018-03-08T22:59:12.579Z,10.00
2018-03-08T23:04:53.251Z,10.10
2018-03-08T23:07:21.762Z,10.07
2018-03-08T23:09:50.319Z,10.07
2018-03-08T23:12:18.844Z,10.05
2018-03-08T23:14:47.306Z,10.04
2018-03-08T23:17:15.794Z,10.04
2018-03-08T23:19:44.238Z,9.94
2018-03-08T23:22:12.809Z,9.93
2018-03-08T23:24:41.254Z,9.82
2018-03-08T23:27:09.757Z,9.91
2018-03-08T23:29:38.261Z,9.94
2018-03-08T23:32:06.738Z,9.84
2018-03-08T23:34:35.291Z,9.74
2018-03-08T23:37:03.758Z,9.84
2018-03-08T23:39:32.206Z,9.85
2018-03-08T23:42:00.715Z,9.85
2018-03-08T23:44:29.162Z,9.80
2018-03-08T23:46:57.702Z,9.65
2018-03-08T23:49:26.150Z,9.77
2018-03-08T23:51:54.594Z,9.70
2018-03-08T23:54:23.082Z,9.64
2018-03-08T23:56:51.569Z,9.54
2018-03-08T23:59:20.067Z,9.49
